Time;durP1;ratioP1;P1;durP2;ratioP2;P2;SDS_P1;SDS_P2;PMS_P1;PMS_P2;Temp;Humidity;BMP_temperature;BMP_pressure;BME280_temperature;BME280_humidity;BME280_pressure;Samples;Min_cycle;Max_cycle;Signal;HPM_P1;HPM_P2
2023/06/11 00:01:08;;;;;;;19.63;15.13;;;;;;;;;;8433489;28;20117;-90
2023/06/11 00:05:31;;;;;;;23.52;15.90;;;;;;;;;;8421594;28;20048;-90
2023/06/11 00:09:34;;;;;;;25.90;18.45;;;;;;;;;;8392328;28;20130;-91
2023/06/11 00:13:37;;;;;;;44.45;25.40;;;;;;;;;;8413015;28;20122;-90
2023/06/11 00:17:41;;;;;;;52.10;26.77;;;;;;;;;;8419474;28;20547;-90
2023/06/11 00:21:44;;;;;;;44.20;25.00;;;;;;;;;;8403681;28;20487;-90
2023/06/11 00:25:47;;;;;;;40.35;23.02;;;;;;;;;;8387592;28;20072;-90
2023/06/11 00:29:50;;;;;;;41.85;23.50;;;;;;;;;;8415432;28;20021;-89
2023/06/11 00:33:55;;;;;;;40.58;23.13;;;;;;;;;;8400002;28;20463;-90
2023/06/11 00:37:58;;;;;;;36.67;21.95;;;;;;;;;;8407852;28;20139;-89
2023/06/11 00:42:01;;;;;;;30.48;19.45;;;;;;;;;;8427112;28;20484;-90
2023/06/11 00:46:10;;;;;;;27.75;18.73;;;;;;;;;;8419820;28;20052;-90
2023/06/11 00:50:16;;;;;;;28.20;18.67;;;;;;;;;;8395274;28;20052;-89
2023/06/11 00:54:19;;;;;;;26.60;18.73;;;;;;;;;;8410881;28;20189;-90
2023/06/11 00:58:22;;;;;;;24.55;17.73;;;;;;;;;;8405547;28;20484;-90
2023/06/11 01:02:30;;;;;;;29.67;17.60;;;;;;;;;;8394296;28;20132;-90
2023/06/11 01:06:38;;;;;;;24.85;16.52;;;;;;;;;;8411114;28;20041;-90
2023/06/11 01:10:44;;;;;;;24.17;16.13;;;;;;;;;;8413246;28;20115;-90
2023/06/11 01:14:46;;;;;;;21.92;15.93;;;;;;;;;;8376136;28;20562;-92
2023/06/11 01:18:58;;;;;;;21.02;14.98;;;;;;;;;;8379327;28;20114;-90
2023/06/11 01:23:25;;;;;;;22.25;15.88;;;;;;;;;;8395911;28;20114;-89
2023/06/11 01:27:42;;;;;;;20.42;14.20;;;;;;;;;;8385927;28;20512;-90
2023/06/11 01:31:51;;;;;;;19.77;13.30;;;;;;;;;;8402108;28;20045;-90
2023/06/11 01:35:58;;;;;;;22.00;13.73;;;;;;;;;;8405340;28;20525;-89
2023/06/11 01:40:01;;;;;;;20.65;14.48;;;;;;;;;;8396803;28;20075;-90
2023/06/11 01:44:03;;;;;;;20.40;13.40;;;;;;;;;;8416728;28;20051;-90
2023/06/11 01:48:08;;;;;;;19.15;13.98;;;;;;;;;;8407575;28;20048;-90
2023/06/11 01:52:11;;;;;;;25.35;15.52;;;;;;;;;;8432149;28;20419;-90
2023/06/11 01:56:14;;;;;;;22.45;15.68;;;;;;;;;;8421173;28;20120;-89
2023/06/11 02:00:18;;;;;;;24.90;16.05;;;;;;;;;;8388972;28;20124;-90
2023/06/11 02:04:23;;;;;;;21.17;13.63;;;;;;;;;;8411030;28;20082;-90
2023/06/11 02:08:26;;;;;;;26.80;15.95;;;;;;;;;;8408370;28;20503;-89
2023/06/11 02:12:29;;;;;;;23.13;15.88;;;;;;;;;;8404130;28;20044;-90
2023/06/11 02:16:32;;;;;;;20.33;14.80;;;;;;;;;;8389851;28;20416;-90
2023/06/11 02:20:36;;;;;;;25.05;16.77;;;;;;;;;;8389861;28;20131;-88
2023/06/11 02:24:39;;;;;;;24.85;17.17;;;;;;;;;;8390805;28;20601;-88
2023/06/11 02:28:44;;;;;;;21.15;14.10;;;;;;;;;;8426129;28;20047;-88
2023/06/11 02:32:52;;;;;;;25.70;15.00;;;;;;;;;;8411342;28;20044;-91
2023/06/11 02:36:56;;;;;;;24.35;17.63;;;;;;;;;;8387015;28;20520;-90
2023/06/11 02:40:59;;;;;;;25.20;15.93;;;;;;;;;;8389305;28;20088;-94
2023/06/11 02:45:02;;;;;;;21.63;15.40;;;;;;;;;;8430533;28;20048;-89
2023/06/11 02:49:05;;;;;;;21.13;14.60;;;;;;;;;;8394015;28;20053;-88
2023/06/11 02:53:09;;;;;;;21.85;14.55;;;;;;;;;;8422683;28;20108;-88
2023/06/11 02:57:12;;;;;;;23.17;16.23;;;;;;;;;;8395128;28;20043;-88
2023/06/11 03:01:15;;;;;;;26.63;16.55;;;;;;;;;;8421363;28;20500;-88
2023/06/11 03:05:18;;;;;;;24.40;16.15;;;;;;;;;;8432554;28;20411;-88
2023/06/11 03:09:24;;;;;;;20.25;13.93;;;;;;;;;;8421017;28;20435;-88
2023/06/11 03:13:26;;;;;;;24.25;15.88;;;;;;;;;;8421549;28;20119;-89
2023/06/11 03:17:29;;;;;;;20.15;13.30;;;;;;;;;;8422014;28;20070;-88
2023/06/11 03:21:35;;;;;;;20.35;14.35;;;;;;;;;;8415646;28;20083;-88
2023/06/11 03:25:42;;;;;;;20.50;13.68;;;;;;;;;;8428662;28;20048;-89
2023/06/11 03:29:45;;;;;;;15.30;9.68;;;;;;;;;;8424405;28;20079;-88
2023/06/11 03:33:47;;;;;;;17.58;11.90;;;;;;;;;;8433520;28;20127;-88
2023/06/11 03:37:50;;;;;;;16.73;12.40;;;;;;;;;;8414949;28;20121;-88
2023/06/11 03:41:55;;;;;;;16.23;11.55;;;;;;;;;;8429543;28;20163;-89
2023/06/11 03:45:58;;;;;;;19.05;11.88;;;;;;;;;;8426503;28;20098;-89
2023/06/11 03:50:00;;;;;;;13.88;10.30;;;;;;;;;;8427596;28;20076;-88
2023/06/11 03:54:03;;;;;;;13.40;10.10;;;;;;;;;;8401908;28;20048;-92
2023/06/11 03:58:08;;;;;;;15.48;9.98;;;;;;;;;;8418113;28;20083;-90
2023/06/11 04:02:11;;;;;;;15.60;9.75;;;;;;;;;;8398424;28;20078;-89
2023/06/11 04:06:15;;;;;;;12.95;9.38;;;;;;;;;;8402950;28;20041;-89
2023/06/11 04:10:18;;;;;;;12.60;8.73;;;;;;;;;;8398485;28;20037;-89
2023/06/11 04:14:23;;;;;;;11.70;8.38;;;;;;;;;;8402845;28;20392;-89
2023/06/11 04:18:26;;;;;;;13.00;7.82;;;;;;;;;;8405079;28;20099;-89
2023/06/11 04:22:29;;;;;;;14.98;8.10;;;;;;;;;;8391998;28;20071;-89
2023/06/11 04:26:32;;;;;;;10.43;7.30;;;;;;;;;;8405143;28;20060;-89
2023/06/11 04:30:39;;;;;;;11.80;7.75;;;;;;;;;;8406571;28;20040;-89
2023/06/11 04:34:43;;;;;;;9.05;6.95;;;;;;;;;;8404643;28;20041;-89
2023/06/11 04:38:48;;;;;;;11.57;7.07;;;;;;;;;;8391117;28;20139;-89
2023/06/11 04:42:51;;;;;;;11.77;7.22;;;;;;;;;;8395863;28;20098;-91
2023/06/11 04:46:57;;;;;;;9.13;6.80;;;;;;;;;;8409641;28;20037;-91
2023/06/11 04:51:00;;;;;;;9.15;6.78;;;;;;;;;;8404918;28;20068;-90
2023/06/11 04:55:09;;;;;;;9.98;6.10;;;;;;;;;;8406472;28;20048;-90
2023/06/11 04:59:12;;;;;;;9.32;6.28;;;;;;;;;;8401678;28;20097;-91
2023/06/11 05:03:17;;;;;;;9.23;5.15;;;;;;;;;;8403195;28;20097;-90
2023/06/11 05:07:21;;;;;;;10.45;6.10;;;;;;;;;;8413841;28;20408;-90
2023/06/11 05:11:24;;;;;;;9.75;5.82;;;;;;;;;;8397725;28;20067;-90
2023/06/11 05:15:27;;;;;;;11.25;5.78;;;;;;;;;;8392755;28;20561;-89
2023/06/11 05:19:31;;;;;;;8.90;5.75;;;;;;;;;;8401804;28;20036;-91
2023/06/11 05:23:35;;;;;;;6.18;4.80;;;;;;;;;;8397590;28;20128;-91
2023/06/11 05:27:38;;;;;;;7.65;5.28;;;;;;;;;;8409924;28;20051;-90
2023/06/11 05:31:41;;;;;;;9.48;4.90;;;;;;;;;;8399688;28;20137;-91
2023/06/11 05:35:47;;;;;;;7.85;5.00;;;;;;;;;;8400606;28;20041;-91
2023/06/11 05:39:53;;;;;;;13.68;6.15;;;;;;;;;;8403620;28;20414;-90
2023/06/11 05:43:55;;;;;;;7.38;5.53;;;;;;;;;;8417995;28;20040;-90
2023/06/11 05:47:59;;;;;;;11.50;5.22;;;;;;;;;;8415544;28;20055;-90
2023/06/11 05:52:03;;;;;;;8.73;4.93;;;;;;;;;;8416584;28;20051;-91
2023/06/11 05:56:06;;;;;;;6.82;4.90;;;;;;;;;;8421200;28;20488;-91
2023/06/11 06:00:12;;;;;;;7.55;5.00;;;;;;;;;;8411938;28;20051;-91
2023/06/11 06:04:18;;;;;;;6.75;4.43;;;;;;;;;;8407836;28;20047;-92
2023/06/11 06:08:30;;;;;;;6.85;4.40;;;;;;;;;;8417792;28;20082;-90
2023/06/11 06:13:05;;;;;;;7.63;4.30;;;;;;;;;;8425653;28;20044;-91
2023/06/11 06:17:24;;;;;;;8.50;4.90;;;;;;;;;;8381264;28;20083;-91
2023/06/11 06:21:37;;;;;;;5.65;4.22;;;;;;;;;;8430637;28;20411;-91
2023/06/11 06:25:45;;;;;;;6.43;4.13;;;;;;;;;;8417866;28;20041;-91
2023/06/11 06:29:50;;;;;;;6.70;3.97;;;;;;;;;;8429352;28;20044;-91
2023/06/11 06:33:53;;;;;;;5.43;3.92;;;;;;;;;;8420546;28;20118;-91
2023/06/11 06:37:56;;;;;;;10.40;4.30;;;;;;;;;;8404004;28;20106;-91
2023/06/11 06:42:01;;;;;;;11.30;4.00;;;;;;;;;;8419827;28;20055;-90
2023/06/11 06:46:04;;;;;;;7.57;4.10;;;;;;;;;;8425888;28;20106;-92
2023/06/11 06:50:07;;;;;;;7.65;4.30;;;;;;;;;;8398880;28;20048;-90
2023/06/11 06:54:10;;;;;;;7.80;4.30;;;;;;;;;;8399613;28;20045;-90
2023/06/11 06:58:15;;;;;;;6.70;3.70;;;;;;;;;;8409282;28;20059;-90
2023/06/11 07:02:20;;;;;;;5.35;3.65;;;;;;;;;;8400402;28;20131;-90
2023/06/11 07:06:36;;;;;;;6.55;3.50;;;;;;;;;;8403049;28;20044;-92
2023/06/11 07:10:41;;;;;;;6.25;3.42;;;;;;;;;;8364346;28;20059;-91
2023/06/11 07:14:46;;;;;;;5.65;3.45;;;;;;;;;;8406101;28;20048;-92
2023/06/11 07:18:49;;;;;;;7.40;3.30;;;;;;;;;;8408163;28;20036;-92
2023/06/11 07:22:55;;;;;;;7.20;3.10;;;;;;;;;;8426960;28;20416;-93
2023/06/11 07:27:07;;;;;;;6.35;3.58;;;;;;;;;;8428740;28;20509;-94
2023/06/11 07:31:12;;;;;;;5.90;3.03;;;;;;;;;;8411899;28;20068;-92
2023/06/11 07:35:16;;;;;;;6.72;3.35;;;;;;;;;;8409167;28;20041;-92
2023/06/11 07:39:19;;;;;;;5.07;3.33;;;;;;;;;;8422859;28;20056;-92
2023/06/11 07:43:24;;;;;;;5.65;3.80;;;;;;;;;;8425582;28;20044;-94
2023/06/11 07:47:29;;;;;;;7.18;4.00;;;;;;;;;;8417762;28;20178;-95
2023/06/11 07:55:56;;;;;;;9.68;4.30;;;;;;;;;;8444727;28;20564;-91
2023/06/11 08:05:17;;;;;;;5.50;3.72;;;;;;;;;;8353979;28;20132;-90
2023/06/11 08:09:32;;;;;;;7.47;3.20;;;;;;;;;;8321643;28;20080;-90
2023/06/11 08:13:38;;;;;;;4.90;3.10;;;;;;;;;;8301825;28;20041;-93
2023/06/11 08:17:47;;;;;;;5.28;3.33;;;;;;;;;;8321970;28;20057;-94
2023/06/11 08:22:02;;;;;;;6.75;3.63;;;;;;;;;;8287835;28;20172;-95
2023/06/11 08:26:38;;;;;;;6.45;3.30;;;;;;;;;;8303046;28;20053;-93
2023/06/11 08:30:53;;;;;;;6.00;3.45;;;;;;;;;;8331651;28;20132;-93
2023/06/11 08:35:20;;;;;;;11.48;3.72;;;;;;;;;;8330211;28;20069;-95
2023/06/11 08:39:59;;;;;;;6.68;3.88;;;;;;;;;;8321052;28;20145;-92
2023/06/11 08:44:07;;;;;;;7.88;3.40;;;;;;;;;;8328922;28;20440;-93
2023/06/11 08:48:21;;;;;;;8.93;3.60;;;;;;;;;;8341677;28;20041;-95
2023/06/11 08:52:30;;;;;;;8.48;3.60;;;;;;;;;;8328015;28;20068;-93
2023/06/11 08:57:00;;;;;;;6.63;3.20;;;;;;;;;;8342088;28;20053;-93
2023/06/11 09:01:13;;;;;;;4.70;3.00;;;;;;;;;;8333905;28;20054;-93
2023/06/11 09:15:03;;;;;;;8.30;3.60;;;;;;;;;;8304602;28;20615;-95
2023/06/11 09:24:18;;;;;;;7.95;5.40;;;;;;;;;;8277614;28;20540;-94
2023/06/11 09:28:22;;;;;;;6.47;3.75;;;;;;;;;;8261260;28;20106;-94
2023/06/11 09:32:38;;;;;;;10.57;6.05;;;;;;;;;;8275932;28;20049;-92
2023/06/11 09:36:51;;;;;;;5.45;3.92;;;;;;;;;;8283404;28;20069;-93
2023/06/11 09:40:59;;;;;;;5.78;3.97;;;;;;;;;;8369448;28;20142;-94
2023/06/11 09:45:25;;;;;;;8.10;4.72;;;;;;;;;;8383858;28;20078;-94
2023/06/11 09:49:55;;;;;;;5.65;3.63;;;;;;;;;;8392033;28;20061;-94
2023/06/11 09:54:16;;;;;;;8.80;5.15;;;;;;;;;;8394714;28;20067;-91
2023/06/11 09:58:22;;;;;;;;;;;;;;;;;;8341832;28;20065;-91
2023/06/11 10:02:26;;;;;;;8.43;4.00;;;;;;;;;;8376873;28;20037;-91
2023/06/11 10:06:39;;;;;;;5.03;3.42;;;;;;;;;;8392689;28;20059;-91
2023/06/11 10:10:43;;;;;;;;;;;;;;;;;;8384994;28;20056;-90
2023/06/11 10:14:53;;;;;;;6.72;3.60;;;;;;;;;;8391796;28;20446;-91
2023/06/11 10:19:05;;;;;;;5.18;3.30;;;;;;;;;;8390754;28;20118;-91
2023/06/11 10:23:11;;;;;;;6.20;3.67;;;;;;;;;;8379300;28;20052;-92
2023/06/11 10:27:18;;;;;;;5.22;3.30;;;;;;;;;;8393637;28;20049;-92
2023/06/11 10:31:29;;;;;;;6.10;3.75;;;;;;;;;;8391791;28;20048;-91
2023/06/11 10:35:33;;;;;;;7.47;3.30;;;;;;;;;;8386641;28;20056;-91
2023/06/11 10:39:50;;;;;;;6.00;3.33;;;;;;;;;;8394528;28;20090;-92
2023/06/11 10:43:56;;;;;;;6.03;2.88;;;;;;;;;;8384678;28;20622;-88
2023/06/11 10:48:02;;;;;;;6.47;3.63;;;;;;;;;;8387280;28;20497;-89
2023/06/11 10:52:06;;;;;;;4.55;3.17;;;;;;;;;;8375715;28;20051;-89
2023/06/11 10:56:15;;;;;;;5.63;3.40;;;;;;;;;;8372890;28;20048;-89
2023/06/11 11:00:20;;;;;;;6.13;3.30;;;;;;;;;;8397418;28;20044;-89
2023/06/11 11:04:25;;;;;;;6.32;3.80;;;;;;;;;;8395395;28;20051;-87
2023/06/11 11:08:32;;;;;;;4.78;3.05;;;;;;;;;;8399636;28;20041;-87
2023/06/11 11:12:45;;;;;;;6.40;3.60;;;;;;;;;;8397009;28;20045;-86
2023/06/11 11:16:49;;;;;;;5.72;3.20;;;;;;;;;;8396279;28;20044;-88
2023/06/11 11:21:04;;;;;;;8.88;3.50;;;;;;;;;;8398840;28;20594;-87
2023/06/11 11:25:11;;;;;;;6.80;3.72;;;;;;;;;;8385067;28;20063;-87
2023/06/11 11:29:23;;;;;;;5.72;3.42;;;;;;;;;;8394629;28;20602;-87
2023/06/11 11:33:29;;;;;;;7.43;3.85;;;;;;;;;;8387612;28;20124;-88
2023/06/11 11:37:35;;;;;;;6.88;3.88;;;;;;;;;;8402210;28;20057;-87
2023/06/11 11:41:46;;;;;;;4.18;2.97;;;;;;;;;;8394446;28;20110;-87
2023/06/11 11:45:52;;;;;;;5.67;3.20;;;;;;;;;;8386737;28;20124;-87
2023/06/11 11:49:55;;;;;;;8.02;3.40;;;;;;;;;;8415223;28;20312;-89
2023/06/11 11:53:59;;;;;;;5.95;3.30;;;;;;;;;;8390070;28;20041;-90
2023/06/11 11:58:09;;;;;;;9.48;3.58;;;;;;;;;;8393968;28;20059;-88
2023/06/11 12:02:25;;;;;;;5.97;3.63;;;;;;;;;;8406941;28;20500;-89
2023/06/11 12:06:30;;;;;;;5.75;3.40;;;;;;;;;;8397394;28;20044;-91
2023/06/11 12:10:33;;;;;;;10.60;3.70;;;;;;;;;;8398782;28;20476;-90
2023/06/11 12:14:40;;;;;;;5.65;3.13;;;;;;;;;;8403178;28;20045;-90
2023/06/11 12:18:48;;;;;;;6.68;3.63;;;;;;;;;;8411949;28;20751;-90
2023/06/11 12:22:52;;;;;;;4.82;3.30;;;;;;;;;;8362214;28;20049;-90
2023/06/11 12:27:02;;;;;;;5.65;3.33;;;;;;;;;;8385353;28;20036;-89
2023/06/11 12:31:07;;;;;;;5.45;3.30;;;;;;;;;;8394214;28;20049;-89
2023/06/11 12:35:13;;;;;;;7.28;3.40;;;;;;;;;;8407983;28;20044;-90
2023/06/11 12:39:16;;;;;;;5.85;3.40;;;;;;;;;;8397399;28;20086;-90
2023/06/11 12:43:20;;;;;;;6.32;4.13;;;;;;;;;;8386772;28;20105;-90
2023/06/11 12:47:30;;;;;;;7.80;3.30;;;;;;;;;;8385910;28;20094;-90
2023/06/11 12:51:38;;;;;;;8.13;3.50;;;;;;;;;;8396444;28;20049;-91
2023/06/11 12:55:55;;;;;;;6.60;3.30;;;;;;;;;;8394138;28;20080;-89
2023/06/11 13:00:05;;;;;;;6.45;3.25;;;;;;;;;;8391690;28;20079;-90
2023/06/11 13:04:18;;;;;;;6.88;3.25;;;;;;;;;;8369144;28;20071;-90
2023/06/11 13:08:31;;;;;;;4.90;3.15;;;;;;;;;;8409303;28;20041;-89
2023/06/11 13:12:36;;;;;;;5.03;3.05;;;;;;;;;;8369422;28;20491;-90
2023/06/11 13:16:40;;;;;;;4.88;2.80;;;;;;;;;;8393827;28;20037;-90
2023/06/11 13:20:45;;;;;;;4.47;2.88;;;;;;;;;;8396485;28;20049;-89
2023/06/11 13:24:59;;;;;;;7.28;2.92;;;;;;;;;;8406497;28;20073;-89
2023/06/11 13:29:06;;;;;;;6.00;3.53;;;;;;;;;;8396820;28;20048;-89
2023/06/11 13:33:10;;;;;;;8.98;3.85;;;;;;;;;;8403683;28;20056;-90
2023/06/11 13:37:17;;;;;;;6.15;2.95;;;;;;;;;;8394150;28;20061;-90
2023/06/11 13:41:26;;;;;;;6.38;3.65;;;;;;;;;;8391486;28;20052;-90
2023/06/11 13:45:30;;;;;;;4.70;2.78;;;;;;;;;;8413141;28;20055;-89
2023/06/11 13:49:37;;;;;;;5.07;3.10;;;;;;;;;;8398483;28;20041;-89
2023/06/11 13:53:40;;;;;;;4.80;3.10;;;;;;;;;;8395872;28;20070;-90
2023/06/11 13:57:45;;;;;;;4.40;3.10;;;;;;;;;;8390180;28;20056;-90
2023/06/11 14:01:51;;;;;;;9.18;5.05;;;;;;;;;;8385814;28;20126;-89
2023/06/11 14:05:56;;;;;;;6.75;3.53;;;;;;;;;;8400984;28;20048;-89
2023/06/11 14:10:05;;;;;;;7.07;3.40;;;;;;;;;;8372340;28;20069;-89
2023/06/11 14:14:12;;;;;;;4.03;2.70;;;;;;;;;;8402359;28;20108;-89
2023/06/11 14:18:16;;;;;;;8.40;3.08;;;;;;;;;;8391441;28;20052;-90
2023/06/11 14:22:29;;;;;;;8.35;3.17;;;;;;;;;;8409273;28;20068;-90
2023/06/11 14:26:40;;;;;;;7.43;3.28;;;;;;;;;;8331159;28;20052;-90
2023/06/11 14:30:52;;;;;;;7.10;3.55;;;;;;;;;;8413994;28;20036;-90
2023/06/11 14:35:02;;;;;;;3.63;2.55;;;;;;;;;;8393125;28;20045;-90
2023/06/11 14:39:10;;;;;;;6.45;3.10;;;;;;;;;;8396558;28;20056;-91
2023/06/11 14:43:18;;;;;;;4.53;2.75;;;;;;;;;;8396122;28;20040;-90
2023/06/11 14:47:40;;;;;;;5.90;2.95;;;;;;;;;;8437428;28;20051;-90
2023/06/11 14:51:52;;;;;;;7.28;3.42;;;;;;;;;;8395012;28;20051;-91
2023/06/11 14:56:34;;;;;;;4.82;2.92;;;;;;;;;;8446940;28;20156;-90
2023/06/11 15:00:41;;;;;;;5.88;3.03;;;;;;;;;;8463022;28;20047;-89
2023/06/11 15:04:50;;;;;;;6.47;3.03;;;;;;;;;;8410376;28;20045;-89
2023/06/11 15:08:55;;;;;;;5.43;2.90;;;;;;;;;;8353586;28;20063;-89
2023/06/11 15:13:04;;;;;;;5.65;2.92;;;;;;;;;;8447454;28;20068;-90
2023/06/11 15:17:11;;;;;;;9.52;2.92;;;;;;;;;;8437736;28;20051;-90
2023/06/11 15:21:25;;;;;;;;;;;;;;;;;;8426537;28;20052;-89
2023/06/11 15:25:28;;;;;;;5.47;2.90;;;;;;;;;;8434090;28;19928;-89
2023/06/11 15:29:52;;;;;;;4.47;3.00;;;;;;;;;;8429096;28;20032;-89
2023/06/11 15:33:59;;;;;;;8.30;3.08;;;;;;;;;;8430071;28;20045;-89
2023/06/11 15:38:07;;;;;;;5.47;2.88;;;;;;;;;;8441235;28;20519;-90
2023/06/11 15:42:11;;;;;;;5.60;3.55;;;;;;;;;;8427698;28;20085;-90
2023/06/11 15:46:14;;;;;;;4.78;2.88;;;;;;;;;;8434522;28;20074;-89
2023/06/11 15:50:18;;;;;;;4.90;3.05;;;;;;;;;;8438646;28;20044;-89
2023/06/11 15:54:28;;;;;;;5.80;3.20;;;;;;;;;;8449571;28;20451;-89
2023/06/11 15:58:49;;;;;;;4.20;3.13;;;;;;;;;;8397007;28;20071;-90
2023/06/11 16:02:55;;;;;;;4.43;3.00;;;;;;;;;;8451360;28;20034;-90
2023/06/11 16:11:30;;;;;;;4.32;2.85;;;;;;;;;;8424447;28;20048;-90
2023/06/11 16:15:39;;;;;;;4.63;2.72;;;;;;;;;;8425496;28;20039;-90
2023/06/11 16:19:57;;;;;;;5.55;2.55;;;;;;;;;;8393362;28;20050;-90
2023/06/11 16:24:04;;;;;;;5.55;3.00;;;;;;;;;;8431908;28;20062;-90
2023/06/11 16:28:21;;;;;;;7.70;4.07;;;;;;;;;;8455674;28;20025;-88
2023/06/11 16:32:28;;;;;;;6.25;3.33;;;;;;;;;;8441225;28;20032;-89
2023/06/11 16:36:34;;;;;;;8.25;3.15;;;;;;;;;;8442015;28;20044;-90
2023/06/11 16:45:29;;;;;;;6.10;3.58;;;;;;;;;;8416560;28;20036;-89
2023/06/11 16:49:57;;;;;;;7.00;4.63;;;;;;;;;;8441172;28;20142;-90
2023/06/11 16:54:29;;;;;;;10.40;8.82;;;;;;;;;;8457985;28;20052;-89
2023/06/11 16:58:33;;;;;;;6.10;3.85;;;;;;;;;;8442998;28;20056;-89
2023/06/11 17:07:14;;;;;;;6.50;3.25;;;;;;;;;;8402926;28;20056;-89
2023/06/11 17:11:17;;;;;;;15.48;9.55;;;;;;;;;;8393615;28;20048;-88
2023/06/11 17:15:21;;;;;;;11.13;5.47;;;;;;;;;;8398795;28;20045;-88
2023/06/11 17:19:28;;;;;;;22.30;12.68;;;;;;;;;;8380278;28;20462;-89
2023/06/11 17:23:32;;;;;;;45.45;25.65;;;;;;;;;;8382149;28;20049;-90
2023/06/11 17:27:36;;;;;;;29.70;12.18;;;;;;;;;;8387440;28;20044;-91
2023/06/11 17:31:40;;;;;;;110.07;37.20;;;;;;;;;;8394781;28;20134;-90
2023/06/11 17:35:51;;;;;;;168.27;58.17;;;;;;;;;;8387621;28;20048;-90
2023/06/11 17:39:55;;;;;;;95.97;33.08;;;;;;;;;;8374413;28;20493;-90
2023/06/11 17:43:58;;;;;;;122.18;41.35;;;;;;;;;;8383041;28;20072;-90
2023/06/11 17:48:01;;;;;;;85.03;36.25;;;;;;;;;;8377296;28;20041;-90
2023/06/11 17:52:08;;;;;;;27.77;14.40;;;;;;;;;;8383999;28;20052;-90
2023/06/11 17:56:11;;;;;;;35.20;19.50;;;;;;;;;;8372219;28;20045;-90
2023/06/11 18:00:17;;;;;;;27.52;12.82;;;;;;;;;;8386853;28;20032;-89
2023/06/11 18:04:23;;;;;;;20.75;9.10;;;;;;;;;;8388537;28;20079;-89
2023/06/11 18:08:28;;;;;;;25.55;11.10;;;;;;;;;;8370895;28;20063;-90
2023/06/11 18:12:37;;;;;;;43.75;18.63;;;;;;;;;;8370731;28;20072;-90
2023/06/11 18:16:40;;;;;;;8.00;5.28;;;;;;;;;;8390491;28;20048;-91
2023/06/11 18:20:43;;;;;;;15.35;6.97;;;;;;;;;;8390243;28;20078;-90
2023/06/11 18:24:48;;;;;;;13.88;6.88;;;;;;;;;;8386745;28;20044;-89
2023/06/11 18:28:52;;;;;;;7.20;3.40;;;;;;;;;;8391230;28;20048;-90
2023/06/11 18:32:59;;;;;;;6.07;3.55;;;;;;;;;;8383656;28;20045;-90
2023/06/11 18:37:03;;;;;;;29.73;13.05;;;;;;;;;;8377256;28;20071;-90
2023/06/11 18:41:56;;;;;;;26.52;13.35;;;;;;;;;;8404692;28;20075;-90
2023/06/11 18:46:00;;;;;;;8.80;4.75;;;;;;;;;;8346855;28;20108;-90
2023/06/11 18:50:27;;;;;;;16.35;8.52;;;;;;;;;;8334873;28;20127;-89
2023/06/11 18:54:40;;;;;;;12.52;7.32;;;;;;;;;;8318249;28;20069;-90
2023/06/11 18:58:54;;;;;;;28.02;14.63;;;;;;;;;;8319359;28;20060;-90
2023/06/11 19:07:40;;;;;;;36.40;20.73;;;;;;;;;;8290139;28;20065;-90
2023/06/11 19:11:50;;;;;;;35.83;26.27;;;;;;;;;;8316050;28;20518;-90
2023/06/11 19:20:38;;;;;;;21.42;12.70;;;;;;;;;;8210677;28;20057;-91
2023/06/11 19:24:59;;;;;;;9.85;5.95;;;;;;;;;;8298141;28;20064;-90
2023/06/11 19:29:27;;;;;;;10.23;6.10;;;;;;;;;;8298203;28;20090;-90
2023/06/11 19:33:57;;;;;;;8.68;4.85;;;;;;;;;;8300685;28;20100;-90
2023/06/11 19:38:29;;;;;;;8.43;4.20;;;;;;;;;;8285843;28;20089;-90
2023/06/11 19:42:38;;;;;;;8.18;4.57;;;;;;;;;;8268330;28;20851;-90
2023/06/11 19:46:46;;;;;;;6.18;4.05;;;;;;;;;;8294906;28;20062;-90
2023/06/11 19:51:04;;;;;;;10.73;4.50;;;;;;;;;;8295279;28;20154;-91
2023/06/11 19:55:50;;;;;;;9.45;4.18;;;;;;;;;;8290799;28;20045;-90
2023/06/11 20:00:04;;;;;;;8.93;4.55;;;;;;;;;;8290063;28;20050;-89
2023/06/11 20:04:34;;;;;;;7.55;4.47;;;;;;;;;;8303933;28;20054;-90
2023/06/11 20:09:09;;;;;;;8.23;5.18;;;;;;;;;;8245272;28;20141;-90
2023/06/11 20:13:14;;;;;;;7.10;5.25;;;;;;;;;;8296995;28;20061;-90
2023/06/11 20:17:27;;;;;;;7.88;5.35;;;;;;;;;;8365038;28;20057;-90
2023/06/11 20:21:35;;;;;;;12.55;5.45;;;;;;;;;;8396462;28;20050;-90
2023/06/11 20:25:49;;;;;;;7.88;5.50;;;;;;;;;;8389241;28;20090;-89
2023/06/11 20:29:59;;;;;;;8.85;5.82;;;;;;;;;;8394084;28;20040;-89
2023/06/11 20:34:10;;;;;;;9.07;5.80;;;;;;;;;;8407589;28;20040;-89
2023/06/11 20:38:19;;;;;;;8.82;6.15;;;;;;;;;;8409739;28;20079;-90
2023/06/11 20:42:25;;;;;;;10.48;5.88;;;;;;;;;;8402444;28;20565;-89
2023/06/11 20:46:35;;;;;;;8.40;5.55;;;;;;;;;;8399846;28;20118;-90
2023/06/11 20:50:42;;;;;;;8.48;5.68;;;;;;;;;;8393722;28;20040;-89
2023/06/11 20:54:49;;;;;;;7.70;5.20;;;;;;;;;;8401246;28;20067;-89
2023/06/11 20:58:55;;;;;;;9.30;6.20;;;;;;;;;;8403801;28;20044;-89
2023/06/11 21:03:01;;;;;;;10.27;6.10;;;;;;;;;;8420270;28;20048;-90
2023/06/11 21:07:05;;;;;;;10.70;6.43;;;;;;;;;;8380342;28;20060;-90
2023/06/11 21:11:12;;;;;;;11.00;6.22;;;;;;;;;;8396845;28;20492;-89
2023/06/11 21:15:21;;;;;;;12.27;6.15;;;;;;;;;;8367861;28;20087;-89
2023/06/11 21:19:25;;;;;;;12.23;7.32;;;;;;;;;;8397999;28;20064;-89
2023/06/11 21:23:34;;;;;;;10.18;6.25;;;;;;;;;;8397162;28;20048;-89
2023/06/11 21:27:42;;;;;;;11.00;6.20;;;;;;;;;;8381091;28;20126;-89
2023/06/11 21:31:47;;;;;;;14.68;7.03;;;;;;;;;;8398661;28;20072;-89
2023/06/11 21:35:51;;;;;;;11.68;6.65;;;;;;;;;;8416079;28;20077;-89
2023/06/11 21:39:57;;;;;;;9.32;6.45;;;;;;;;;;8391733;28;20057;-89
2023/06/11 21:44:01;;;;;;;11.88;7.00;;;;;;;;;;8394730;28;20044;-89
2023/06/11 21:48:13;;;;;;;10.68;6.43;;;;;;;;;;8389994;28;20084;-89
2023/06/11 21:52:21;;;;;;;10.40;7.47;;;;;;;;;;8399717;28;20059;-89
2023/06/11 21:56:28;;;;;;;12.05;7.55;;;;;;;;;;8394821;28;20075;-89
2023/06/11 22:00:35;;;;;;;11.18;7.35;;;;;;;;;;8400388;28;20487;-89
2023/06/11 22:04:45;;;;;;;11.95;7.13;;;;;;;;;;8408753;28;20105;-89
2023/06/11 22:08:48;;;;;;;13.60;7.93;;;;;;;;;;8404612;28;20036;-89
2023/06/11 22:12:56;;;;;;;9.85;6.90;;;;;;;;;;8419485;28;20044;-89
2023/06/11 22:17:05;;;;;;;9.63;7.15;;;;;;;;;;8398625;28;20048;-90
2023/06/11 22:21:13;;;;;;;13.93;7.43;;;;;;;;;;8407979;28;20177;-89
2023/06/11 22:25:21;;;;;;;11.05;7.28;;;;;;;;;;8405882;28;20507;-89
2023/06/11 22:29:26;;;;;;;12.52;7.78;;;;;;;;;;8395065;28;20056;-90
2023/06/11 22:33:29;;;;;;;13.52;6.45;;;;;;;;;;8392405;28;20064;-89
2023/06/11 22:37:35;;;;;;;13.90;6.80;;;;;;;;;;8402796;28;20064;-89
2023/06/11 22:41:39;;;;;;;16.05;7.28;;;;;;;;;;8396799;28;20048;-89
2023/06/11 22:45:42;;;;;;;13.07;7.97;;;;;;;;;;8415859;28;20108;-92
2023/06/11 22:49:46;;;;;;;16.73;7.93;;;;;;;;;;8353577;28;20107;-91
2023/06/11 22:53:50;;;;;;;13.02;8.20;;;;;;;;;;8403060;28;20040;-93
2023/06/11 22:57:53;;;;;;;14.18;7.93;;;;;;;;;;8391954;28;20067;-91
2023/06/11 23:01:59;;;;;;;13.80;8.35;;;;;;;;;;8393606;28;20044;-89
2023/06/11 23:06:03;;;;;;;14.88;8.30;;;;;;;;;;8391309;28;20052;-92
2023/06/11 23:10:08;;;;;;;14.65;8.05;;;;;;;;;;8381026;28;20488;-90
2023/06/11 23:14:12;;;;;;;14.00;7.60;;;;;;;;;;8392575;28;20078;-96
2023/06/11 23:18:16;;;;;;;15.35;7.85;;;;;;;;;;8377343;28;20139;-91
2023/06/11 23:22:21;;;;;;;11.63;7.72;;;;;;;;;;8381124;28;20052;-96
2023/06/11 23:26:26;;;;;;;16.63;8.27;;;;;;;;;;8400417;28;20109;-91
2023/06/11 23:30:30;;;;;;;15.60;8.20;;;;;;;;;;8386891;28;20459;-95
2023/06/11 23:34:33;;;;;;;12.75;7.68;;;;;;;;;;8387125;28;20061;-90
2023/06/11 23:38:38;;;;;;;13.10;8.13;;;;;;;;;;8392305;28;20063;-93
2023/06/11 23:42:43;;;;;;;13.82;8.25;;;;;;;;;;8389640;28;20449;-95
2023/06/11 23:46:46;;;;;;;14.38;8.20;;;;;;;;;;8394531;28;20424;-90
2023/06/11 23:50:49;;;;;;;15.77;8.52;;;;;;;;;;8392380;28;20049;-89
2023/06/11 23:54:52;;;;;;;14.20;8.23;;;;;;;;;;8387967;28;20051;-90
2023/06/11 23:58:57;;;;;;;15.77;7.75;;;;;;;;;;8395212;28;20045;-95
